Captain Ed — WDF6338 — position and weather

sailwx.info

Track history (hours):
 
Tides and Currents Weather Stations Pressure Air Temp Water Temp Dewpoint Dewpoint Depression Visibility Wind Speed Wind Dir Waves Ship Positions

Captain Ed

Owner: Norfolk Dredging Company, Chesapeake, VA. More information available from US FCC via Universal Licensing System and Coast Guard Vessel Documentation Center.

Last reported at 2017-Aug-16 21:31 UTC. Time now 2017-Aug-17 03:31 UTC.
Position N 36°43' W 076°13'.

Length 22 m; draft 3 m.

Type: Tug. MMSI: 367473210.

Date/timePositionNaut miles runAvg speedWind from/ knotsBaromVisibWave heightAir tempDewpointWater temp
2017-Aug-16 21:31N 36°43' W 076°13'1 7.2
2017-Aug-16 21:22N 36°43' W 076°14'1 2.4
2017-Aug-16 21:00N 36°43' W 076°15'3 5.3
2017-Aug-16 20:30N 36°45' W 076°18'0 0.0
2017-Aug-16 19:57N 36°45' W 076°18'0 0.0
2017-Aug-16 19:18N 36°45' W 076°18'0 0.0
2017-Aug-16 18:16N 36°45' W 076°18'0 0.0
2017-Aug-16 18:00N 36°45' W 076°18'0 0.0
2017-Aug-16 16:18N 36°45' W 076°18'0 0.0
2017-Aug-16 15:57N 36°45' W 076°18'0 0.0
2017-Aug-16 15:27N 36°45' W 076°18'0 0.0
2017-Aug-16 13:57N 36°45' W 076°18'1 2.5
2017-Aug-16 13:27N 36°44' W 076°17'2 4.4
2017-Aug-16 13:00N 36°43' W 076°14'0 0.5
2017-Aug-16 12:08N 36°43' W 076°14'1 4.6
2017-Aug-16 12:00N 36°43' W 076°14'0 0.7
2017-Aug-16 11:28N 36°43' W 076°15'3 5.4
2017-Aug-16 11:00N 36°44' W 076°18'0 0.5
2017-Aug-16 10:30N 36°45' W 076°18'0 0.0
2017-Aug-16 10:00N 36°45' W 076°18'0 0.4
2017-Aug-16 09:26N 36°44' W 076°18'3 3.5
2017-Aug-16 08:38N 36°43' W 076°15'1 0.0
2017-Aug-15 20:08N 36°43' W 076°14'1 4.9
2017-Aug-15 20:00N 36°43' W 076°15'0 0.4
2017-Aug-15 19:24N 36°43' W 076°15'1 3.6
2017-Aug-15 19:00N 36°44' W 076°17'3 5.2
2017-Aug-15 18:30N 36°46' W 076°18'2 4.7
2017-Aug-15 18:01N 36°49' W 076°17'2 3.8
2017-Aug-15 17:30N 36°50' W 076°17'0 0.0
2017-Aug-15 17:00N 36°50' W 076°17'0 0.1
2017-Aug-15 16:29N 36°50' W 076°17'0 0.2
2017-Aug-15 16:00N 36°50' W 076°17'0 0.0
2017-Aug-15 15:31N 36°50' W 076°17'0 0.0
2017-Aug-15 15:00N 36°50' W 076°17'0 0.0
2017-Aug-15 14:31N 36°50' W 076°17'0 0.0
2017-Aug-15 14:00N 36°50' W 076°17'0 0.0
2017-Aug-15 13:31N 36°50' W 076°17'0 0.0
2017-Aug-15 13:01N 36°50' W 076°17'0 0.0
2017-Aug-15 12:31N 36°50' W 076°17'0 0.0
2017-Aug-15 12:00N 36°50' W 076°17'1 1.6
2017-Aug-15 11:31N 36°51' W 076°17'3 5.9
2017-Aug-15 11:00N 36°52' W 076°20'0 0.1
2017-Aug-15 10:31N 36°52' W 076°20'2 3.4
2017-Aug-15 10:00N 36°51' W 076°19'3 5.1
2017-Aug-15 09:30N 36°49' W 076°17'2 5.0
2017-Aug-15 09:00N 36°47' W 076°18'2 3.7
2017-Aug-15 08:30N 36°45' W 076°18'3 2.9
2017-Aug-15 07:27N 36°43' W 076°15'  
2017-Aug-09 15:14N 36°43' W 076°13'2 6.8
2017-Aug-09 15:01N 36°43' W 076°14'1 1.2
2017-Aug-09 14:30N 36°44' W 076°15'3 6.9
2017-Aug-09 14:00N 36°46' W 076°18'3 6.9
2017-Aug-09 13:31N 36°50' W 076°18'3 6.9
2017-Aug-09 13:01N 36°52' W 076°20'4 7.0
2017-Aug-09 12:30N 36°50' W 076°17'0 0.0
2017-Aug-09 12:01N 36°50' W 076°17'1 2.0
2017-Aug-09 11:30N 36°50' W 076°18'3 6.2
2017-Aug-09 11:01N 36°47' W 076°18'0 0.8
2017-Aug-09 10:31N 36°46' W 076°18'0 0.0
2017-Aug-09 10:01N 36°46' W 076°18'0 0.1
2017-Aug-09 09:30N 36°46' W 076°18'2 4.1
2017-Aug-09 09:00N 36°44' W 076°18'3 3.4
2017-Aug-09 08:13N 36°43' W 076°15'  
2017-Aug-07 00:17N 36°43' W 076°13'2 5.8
2017-Aug-07 00:00N 36°43' W 076°15'1 1.9
2017-Aug-06 23:30N 36°44' W 076°16'3 5.2
2017-Aug-06 23:00N 36°46' W 076°18'2 4.9
2017-Aug-06 22:30N 36°48' W 076°18'3 6.5
2017-Aug-06 21:59N 36°51' W 076°19'  
Track history (hours):
 
Tides and Currents Weather Stations Pressure Air Temp Water Temp Dewpoint Dewpoint Depression Visibility Wind Speed Wind Dir Waves Ship Positions

Captain Ed

Owner: Norfolk Dredging Company, Chesapeake, VA. More information available from US FCC via Universal Licensing System and Coast Guard Vessel Documentation Center.

Last reported at 2017-Aug-16 21:31 UTC. Time now 2017-Aug-17 03:31 UTC.
Position N 36°43' W 076°13'.

Length 22 m; draft 3 m.

Type: Tug. MMSI: 367473210.

Date/timePositionNaut miles runAvg speedWind from/ knotsBaromVisibWave heightAir tempDewpointWater temp
2017-Aug-16 21:31N 36°43' W 076°13'1 7.2
2017-Aug-16 21:22N 36°43' W 076°14'1 2.4
2017-Aug-16 21:00N 36°43' W 076°15'3 5.3
2017-Aug-16 20:30N 36°45' W 076°18'0 0.0
2017-Aug-16 19:57N 36°45' W 076°18'0 0.0
2017-Aug-16 19:18N 36°45' W 076°18'0 0.0
2017-Aug-16 18:16N 36°45' W 076°18'0 0.0
2017-Aug-16 18:00N 36°45' W 076°18'0 0.0
2017-Aug-16 16:18N 36°45' W 076°18'0 0.0
2017-Aug-16 15:57N 36°45' W 076°18'0 0.0
2017-Aug-16 15:27N 36°45' W 076°18'0 0.0
2017-Aug-16 13:57N 36°45' W 076°18'1 2.5
2017-Aug-16 13:27N 36°44' W 076°17'2 4.4
2017-Aug-16 13:00N 36°43' W 076°14'0 0.5
2017-Aug-16 12:08N 36°43' W 076°14'1 4.6
2017-Aug-16 12:00N 36°43' W 076°14'0 0.7
2017-Aug-16 11:28N 36°43' W 076°15'3 5.4
2017-Aug-16 11:00N 36°44' W 076°18'0 0.5
2017-Aug-16 10:30N 36°45' W 076°18'0 0.0
2017-Aug-16 10:00N 36°45' W 076°18'0 0.4
2017-Aug-16 09:26N 36°44' W 076°18'3 3.5
2017-Aug-16 08:38N 36°43' W 076°15'1 0.0
2017-Aug-15 20:08N 36°43' W 076°14'1 4.9
2017-Aug-15 20:00N 36°43' W 076°15'0 0.4
2017-Aug-15 19:24N 36°43' W 076°15'1 3.6
2017-Aug-15 19:00N 36°44' W 076°17'3 5.2
2017-Aug-15 18:30N 36°46' W 076°18'2 4.7
2017-Aug-15 18:01N 36°49' W 076°17'2 3.8
2017-Aug-15 17:30N 36°50' W 076°17'0 0.0
2017-Aug-15 17:00N 36°50' W 076°17'0 0.1
2017-Aug-15 16:29N 36°50' W 076°17'0 0.2
2017-Aug-15 16:00N 36°50' W 076°17'0 0.0
2017-Aug-15 15:31N 36°50' W 076°17'0 0.0
2017-Aug-15 15:00N 36°50' W 076°17'0 0.0
2017-Aug-15 14:31N 36°50' W 076°17'0 0.0
2017-Aug-15 14:00N 36°50' W 076°17'0 0.0
2017-Aug-15 13:31N 36°50' W 076°17'0 0.0
2017-Aug-15 13:01N 36°50' W 076°17'0 0.0
2017-Aug-15 12:31N 36°50' W 076°17'0 0.0
2017-Aug-15 12:00N 36°50' W 076°17'1 1.6
2017-Aug-15 11:31N 36°51' W 076°17'3 5.9
2017-Aug-15 11:00N 36°52' W 076°20'0 0.1
2017-Aug-15 10:31N 36°52' W 076°20'2 3.4
2017-Aug-15 10:00N 36°51' W 076°19'3 5.1
2017-Aug-15 09:30N 36°49' W 076°17'2 5.0
2017-Aug-15 09:00N 36°47' W 076°18'2 3.7
2017-Aug-15 08:30N 36°45' W 076°18'3 2.9
2017-Aug-15 07:27N 36°43' W 076°15'  
2017-Aug-09 15:14N 36°43' W 076°13'2 6.8
2017-Aug-09 15:01N 36°43' W 076°14'1 1.2
2017-Aug-09 14:30N 36°44' W 076°15'3 6.9
2017-Aug-09 14:00N 36°46' W 076°18'3 6.9
2017-Aug-09 13:31N 36°50' W 076°18'3 6.9
2017-Aug-09 13:01N 36°52' W 076°20'4 7.0
2017-Aug-09 12:30N 36°50' W 076°17'0 0.0
2017-Aug-09 12:01N 36°50' W 076°17'1 2.0
2017-Aug-09 11:30N 36°50' W 076°18'3 6.2
2017-Aug-09 11:01N 36°47' W 076°18'0 0.8
2017-Aug-09 10:31N 36°46' W 076°18'0 0.0
2017-Aug-09 10:01N 36°46' W 076°18'0 0.1
2017-Aug-09 09:30N 36°46' W 076°18'2 4.1
2017-Aug-09 09:00N 36°44' W 076°18'3 3.4
2017-Aug-09 08:13N 36°43' W 076°15'  
2017-Aug-07 00:17N 36°43' W 076°13'2 5.8
2017-Aug-07 00:00N 36°43' W 076°15'1 1.9
2017-Aug-06 23:30N 36°44' W 076°16'3 5.2
2017-Aug-06 23:00N 36°46' W 076°18'2 4.9
2017-Aug-06 22:30N 36°48' W 076°18'3 6.5
2017-Aug-06 21:59N 36°51' W 076°19'  

Dump ship's entire track history